sensor_id;sensor_type;location;lat;lon;timestamp;P1;durP1;ratioP1;P2;durP2;ratioP2
2622;SDS011;1321;48.690;9.022;2022-09-30T00:01:50;8.70;;;8.00;;
2622;SDS011;1321;48.690;9.022;2022-09-30T00:04:19;8.30;;;7.53;;
2622;SDS011;1321;48.690;9.022;2022-09-30T00:06:49;9.33;;;8.20;;
2622;SDS011;1321;48.690;9.022;2022-09-30T00:09:18;8.23;;;7.53;;
2622;SDS011;1321;48.690;9.022;2022-09-30T00:11:49;9.93;;;8.80;;
2622;SDS011;1321;48.690;9.022;2022-09-30T00:14:18;10.17;;;9.17;;
2622;SDS011;1321;48.690;9.022;2022-09-30T00:16:48;10.87;;;9.50;;
2622;SDS011;1321;48.690;9.022;2022-09-30T00:19:16;9.97;;;9.10;;
2622;SDS011;1321;48.690;9.022;2022-09-30T00:21:44;9.40;;;8.50;;
2622;SDS011;1321;48.690;9.022;2022-09-30T00:24:13;10.87;;;9.80;;
2622;SDS011;1321;48.690;9.022;2022-09-30T00:26:41;9.87;;;8.87;;
2622;SDS011;1321;48.690;9.022;2022-09-30T00:29:10;9.90;;;8.53;;
2622;SDS011;1321;48.690;9.022;2022-09-30T00:31:39;10.30;;;8.23;;
2622;SDS011;1321;48.690;9.022;2022-09-30T00:34:07;9.97;;;9.17;;
2622;SDS011;1321;48.690;9.022;2022-09-30T00:36:40;11.17;;;9.03;;
2622;SDS011;1321;48.690;9.022;2022-09-30T00:39:11;8.43;;;7.63;;
2622;SDS011;1321;48.690;9.022;2022-09-30T00:41:41;9.47;;;8.57;;
2622;SDS011;1321;48.690;9.022;2022-09-30T00:47:42;10.43;;;8.33;;
2622;SDS011;1321;48.690;9.022;2022-09-30T00:50:21;10.20;;;8.97;;
2622;SDS011;1321;48.690;9.022;2022-09-30T00:52:58;10.50;;;9.47;;
2622;SDS011;1321;48.690;9.022;2022-09-30T00:55:36;9.83;;;8.83;;
2622;SDS011;1321;48.690;9.022;2022-09-30T00:58:12;10.13;;;9.07;;
2622;SDS011;1321;48.690;9.022;2022-09-30T01:00:46;9.83;;;8.80;;
2622;SDS011;1321;48.690;9.022;2022-09-30T01:03:17;9.33;;;8.40;;
2622;SDS011;1321;48.690;9.022;2022-09-30T01:05:47;9.63;;;8.70;;
2622;SDS011;1321;48.690;9.022;2022-09-30T01:08:17;9.40;;;8.50;;
2622;SDS011;1321;48.690;9.022;2022-09-30T01:10:47;10.67;;;9.83;;
2622;SDS011;1321;48.690;9.022;2022-09-30T01:13:15;9.67;;;8.77;;
2622;SDS011;1321;48.690;9.022;2022-09-30T01:15:55;9.00;;;8.20;;
2622;SDS011;1321;48.690;9.022;2022-09-30T01:18:48;10.63;;;8.63;;
2622;SDS011;1321;48.690;9.022;2022-09-30T01:21:32;9.83;;;9.00;;
2622;SDS011;1321;48.690;9.022;2022-09-30T01:24:24;8.90;;;8.10;;
2622;SDS011;1321;48.690;9.022;2022-09-30T01:30:15;9.30;;;8.40;;
2622;SDS011;1321;48.690;9.022;2022-09-30T01:33:01;10.23;;;9.33;;
2622;SDS011;1321;48.690;9.022;2022-09-30T01:35:50;8.93;;;8.03;;
2622;SDS011;1321;48.690;9.022;2022-09-30T01:38:34;8.40;;;7.87;;
2622;SDS011;1321;48.690;9.022;2022-09-30T01:41:13;8.23;;;7.60;;
2622;SDS011;1321;48.690;9.022;2022-09-30T01:43:51;7.43;;;6.83;;
2622;SDS011;1321;48.690;9.022;2022-09-30T01:46:26;8.00;;;7.30;;
2622;SDS011;1321;48.690;9.022;2022-09-30T01:49:03;8.90;;;8.33;;
2622;SDS011;1321;48.690;9.022;2022-09-30T01:51:39;8.27;;;7.47;;
2622;SDS011;1321;48.690;9.022;2022-09-30T01:54:13;10.20;;;9.10;;
2622;SDS011;1321;48.690;9.022;2022-09-30T01:56:47;8.10;;;7.37;;
2622;SDS011;1321;48.690;9.022;2022-09-30T01:59:18;8.80;;;8.00;;
2622;SDS011;1321;48.690;9.022;2022-09-30T02:01:51;8.03;;;7.53;;
2622;SDS011;1321;48.690;9.022;2022-09-30T02:04:25;7.40;;;6.97;;
2622;SDS011;1321;48.690;9.022;2022-09-30T02:06:59;8.47;;;7.77;;
2622;SDS011;1321;48.690;9.022;2022-09-30T02:09:32;7.77;;;7.00;;
2622;SDS011;1321;48.690;9.022;2022-09-30T02:12:05;6.97;;;6.37;;
2622;SDS011;1321;48.690;9.022;2022-09-30T02:14:38;8.17;;;7.40;;
2622;SDS011;1321;48.690;9.022;2022-09-30T02:17:11;8.33;;;7.53;;
2622;SDS011;1321;48.690;9.022;2022-09-30T02:19:45;8.77;;;8.07;;
2622;SDS011;1321;48.690;9.022;2022-09-30T02:22:19;7.90;;;7.40;;
2622;SDS011;1321;48.690;9.022;2022-09-30T02:24:50;7.40;;;6.90;;
2622;SDS011;1321;48.690;9.022;2022-09-30T02:27:22;7.17;;;6.50;;
2622;SDS011;1321;48.690;9.022;2022-09-30T02:29:54;10.73;;;7.30;;
2622;SDS011;1321;48.690;9.022;2022-09-30T02:32:25;8.90;;;8.07;;
2622;SDS011;1321;48.690;9.022;2022-09-30T02:35:00;8.70;;;7.67;;
2622;SDS011;1321;48.690;9.022;2022-09-30T02:37:33;8.90;;;8.20;;
2622;SDS011;1321;48.690;9.022;2022-09-30T02:40:05;9.00;;;8.30;;
2622;SDS011;1321;48.690;9.022;2022-09-30T02:42:38;9.50;;;8.70;;
2622;SDS011;1321;48.690;9.022;2022-09-30T02:45:07;9.50;;;8.70;;
2622;SDS011;1321;48.690;9.022;2022-09-30T02:47:42;9.77;;;8.23;;
2622;SDS011;1321;48.690;9.022;2022-09-30T02:50:22;8.77;;;7.97;;
2622;SDS011;1321;48.690;9.022;2022-09-30T02:52:59;10.13;;;7.60;;
2622;SDS011;1321;48.690;9.022;2022-09-30T02:55:41;8.33;;;7.73;;
2622;SDS011;1321;48.690;9.022;2022-09-30T02:58:22;8.07;;;7.23;;
2622;SDS011;1321;48.690;9.022;2022-09-30T03:00:52;7.67;;;6.97;;
2622;SDS011;1321;48.690;9.022;2022-09-30T03:03:22;7.60;;;7.00;;
2622;SDS011;1321;48.690;9.022;2022-09-30T03:05:55;9.10;;;8.30;;
2622;SDS011;1321;48.690;9.022;2022-09-30T03:08:24;9.10;;;7.90;;
2622;SDS011;1321;48.690;9.022;2022-09-30T03:10:52;8.13;;;7.40;;
2622;SDS011;1321;48.690;9.022;2022-09-30T03:13:25;8.40;;;7.80;;
2622;SDS011;1321;48.690;9.022;2022-09-30T03:16:22;7.50;;;6.90;;
2622;SDS011;1321;48.690;9.022;2022-09-30T03:21:57;7.80;;;7.27;;
2622;SDS011;1321;48.690;9.022;2022-09-30T03:24:41;8.17;;;7.47;;
2622;SDS011;1321;48.690;9.022;2022-09-30T03:27:27;7.63;;;7.03;;
2622;SDS011;1321;48.690;9.022;2022-09-30T03:30:03;8.30;;;7.40;;
2622;SDS011;1321;48.690;9.022;2022-09-30T03:32:38;7.70;;;7.20;;
2622;SDS011;1321;48.690;9.022;2022-09-30T03:35:26;6.60;;;6.20;;
2622;SDS011;1321;48.690;9.022;2022-09-30T03:38:02;7.50;;;6.90;;
2622;SDS011;1321;48.690;9.022;2022-09-30T03:40:40;7.40;;;6.90;;
2622;SDS011;1321;48.690;9.022;2022-09-30T03:43:18;7.93;;;7.30;;
2622;SDS011;1321;48.690;9.022;2022-09-30T03:45:51;8.13;;;7.53;;
2622;SDS011;1321;48.690;9.022;2022-09-30T03:48:26;7.97;;;7.27;;
2622;SDS011;1321;48.690;9.022;2022-09-30T03:50:58;7.90;;;7.20;;
2622;SDS011;1321;48.690;9.022;2022-09-30T03:53:29;8.07;;;7.43;;
2622;SDS011;1321;48.690;9.022;2022-09-30T03:55:57;9.30;;;8.37;;
2622;SDS011;1321;48.690;9.022;2022-09-30T03:58:25;8.33;;;7.73;;
2622;SDS011;1321;48.690;9.022;2022-09-30T04:00:53;8.37;;;7.77;;
2622;SDS011;1321;48.690;9.022;2022-09-30T04:03:22;8.87;;;8.07;;
2622;SDS011;1321;48.690;9.022;2022-09-30T04:05:53;8.90;;;8.00;;
2622;SDS011;1321;48.690;9.022;2022-09-30T04:08:21;8.03;;;7.53;;
2622;SDS011;1321;48.690;9.022;2022-09-30T04:10:50;7.37;;;6.80;;
2622;SDS011;1321;48.690;9.022;2022-09-30T04:13:18;7.90;;;7.30;;
2622;SDS011;1321;48.690;9.022;2022-09-30T04:15:51;7.30;;;6.80;;
2622;SDS011;1321;48.690;9.022;2022-09-30T04:18:21;9.30;;;7.23;;
2622;SDS011;1321;48.690;9.022;2022-09-30T04:20:50;7.80;;;7.20;;
2622;SDS011;1321;48.690;9.022;2022-09-30T04:23:18;7.63;;;7.03;;
2622;SDS011;1321;48.690;9.022;2022-09-30T04:25:51;8.23;;;7.53;;
2622;SDS011;1321;48.690;9.022;2022-09-30T04:28:20;8.00;;;7.30;;
2622;SDS011;1321;48.690;9.022;2022-09-30T04:30:48;8.37;;;7.57;;
2622;SDS011;1321;48.690;9.022;2022-09-30T04:33:16;8.40;;;7.80;;
2622;SDS011;1321;48.690;9.022;2022-09-30T04:35:44;8.53;;;7.93;;
2622;SDS011;1321;48.690;9.022;2022-09-30T04:38:12;9.27;;;7.83;;
2622;SDS011;1321;48.690;9.022;2022-09-30T04:40:40;8.63;;;7.80;;
2622;SDS011;1321;48.690;9.022;2022-09-30T04:43:10;7.20;;;6.60;;
2622;SDS011;1321;48.690;9.022;2022-09-30T04:45:41;7.73;;;7.10;;
2622;SDS011;1321;48.690;9.022;2022-09-30T04:48:10;8.97;;;7.90;;
2622;SDS011;1321;48.690;9.022;2022-09-30T04:50:38;9.53;;;8.63;;
2622;SDS011;1321;48.690;9.022;2022-09-30T04:53:07;10.37;;;9.47;;
2622;SDS011;1321;48.690;9.022;2022-09-30T04:55:35;9.27;;;8.57;;
2622;SDS011;1321;48.690;9.022;2022-09-30T04:58:03;9.77;;;8.90;;
2622;SDS011;1321;48.690;9.022;2022-09-30T05:00:32;9.10;;;8.37;;
2622;SDS011;1321;48.690;9.022;2022-09-30T05:03:01;9.93;;;8.93;;
2622;SDS011;1321;48.690;9.022;2022-09-30T05:05:29;9.07;;;8.20;;
2622;SDS011;1321;48.690;9.022;2022-09-30T05:07:59;9.23;;;8.23;;
2622;SDS011;1321;48.690;9.022;2022-09-30T05:10:28;9.43;;;8.53;;
2622;SDS011;1321;48.690;9.022;2022-09-30T05:12:56;10.40;;;9.40;;
2622;SDS011;1321;48.690;9.022;2022-09-30T05:15:25;9.00;;;8.40;;
2622;SDS011;1321;48.690;9.022;2022-09-30T05:17:54;11.83;;;8.90;;
2622;SDS011;1321;48.690;9.022;2022-09-30T05:20:22;9.00;;;8.20;;
2622;SDS011;1321;48.690;9.022;2022-09-30T05:22:52;9.90;;;8.97;;
2622;SDS011;1321;48.690;9.022;2022-09-30T05:25:21;10.33;;;9.40;;
2622;SDS011;1321;48.690;9.022;2022-09-30T05:27:50;9.30;;;8.50;;
2622;SDS011;1321;48.690;9.022;2022-09-30T05:30:18;9.97;;;8.97;;
2622;SDS011;1321;48.690;9.022;2022-09-30T05:32:46;10.27;;;9.60;;
2622;SDS011;1321;48.690;9.022;2022-09-30T05:35:15;10.30;;;9.50;;
2622;SDS011;1321;48.690;9.022;2022-09-30T05:37:43;8.57;;;8.00;;
2622;SDS011;1321;48.690;9.022;2022-09-30T05:40:11;9.90;;;9.20;;
2622;SDS011;1321;48.690;9.022;2022-09-30T05:42:39;9.77;;;8.97;;
2622;SDS011;1321;48.690;9.022;2022-09-30T05:45:10;9.50;;;8.70;;
2622;SDS011;1321;48.690;9.022;2022-09-30T05:47:38;16.83;;;15.13;;
2622;SDS011;1321;48.690;9.022;2022-09-30T05:50:06;14.47;;;13.37;;
2622;SDS011;1321;48.690;9.022;2022-09-30T05:52:36;21.30;;;19.30;;
2622;SDS011;1321;48.690;9.022;2022-09-30T05:55:04;18.40;;;16.80;;
2622;SDS011;1321;48.690;9.022;2022-09-30T05:57:33;15.20;;;13.80;;
2622;SDS011;1321;48.690;9.022;2022-09-30T06:00:01;13.80;;;12.60;;
2622;SDS011;1321;48.690;9.022;2022-09-30T06:02:30;11.93;;;10.83;;
2622;SDS011;1321;48.690;9.022;2022-09-30T06:04:59;11.10;;;10.10;;
2622;SDS011;1321;48.690;9.022;2022-09-30T06:07:27;11.27;;;10.47;;
2622;SDS011;1321;48.690;9.022;2022-09-30T06:09:57;13.77;;;11.77;;
2622;SDS011;1321;48.690;9.022;2022-09-30T06:12:25;11.33;;;10.17;;
2622;SDS011;1321;48.690;9.022;2022-09-30T06:14:54;11.20;;;10.30;;
2622;SDS011;1321;48.690;9.022;2022-09-30T06:17:22;12.17;;;11.27;;
2622;SDS011;1321;48.690;9.022;2022-09-30T06:19:50;13.60;;;12.40;;
2622;SDS011;1321;48.690;9.022;2022-09-30T06:22:18;12.10;;;11.10;;
2622;SDS011;1321;48.690;9.022;2022-09-30T06:24:46;11.20;;;10.33;;
2622;SDS011;1321;48.690;9.022;2022-09-30T06:27:21;12.17;;;11.20;;
2622;SDS011;1321;48.690;9.022;2022-09-30T06:29:50;11.70;;;10.70;;
2622;SDS011;1321;48.690;9.022;2022-09-30T06:32:18;11.30;;;10.50;;
2622;SDS011;1321;48.690;9.022;2022-09-30T06:34:47;12.67;;;11.57;;
2622;SDS011;1321;48.690;9.022;2022-09-30T06:38:50;13.00;;;11.90;;
2622;SDS011;1321;48.690;9.022;2022-09-30T06:41:19;12.07;;;10.97;;
2622;SDS011;1321;48.690;9.022;2022-09-30T06:43:49;13.20;;;12.07;;
2622;SDS011;1321;48.690;9.022;2022-09-30T06:46:27;12.60;;;11.43;;
2622;SDS011;1321;48.690;9.022;2022-09-30T06:48:57;11.50;;;10.60;;
2622;SDS011;1321;48.690;9.022;2022-09-30T06:51:39;13.13;;;12.07;;
2622;SDS011;1321;48.690;9.022;2022-09-30T06:54:09;12.83;;;11.53;;
2622;SDS011;1321;48.690;9.022;2022-09-30T06:56:37;14.27;;;12.90;;
2622;SDS011;1321;48.690;9.022;2022-09-30T06:59:05;14.10;;;12.90;;
2622;SDS011;1321;48.690;9.022;2022-09-30T07:01:33;14.00;;;12.73;;
2622;SDS011;1321;48.690;9.022;2022-09-30T07:04:02;14.03;;;13.03;;
2622;SDS011;1321;48.690;9.022;2022-09-30T07:06:35;13.77;;;12.50;;
2622;SDS011;1321;48.690;9.022;2022-09-30T07:09:04;13.67;;;12.57;;
2622;SDS011;1321;48.690;9.022;2022-09-30T07:11:34;15.83;;;14.43;;
2622;SDS011;1321;48.690;9.022;2022-09-30T07:14:03;14.80;;;13.50;;
2622;SDS011;1321;48.690;9.022;2022-09-30T07:16:32;14.00;;;12.73;;
2622;SDS011;1321;48.690;9.022;2022-09-30T07:19:01;13.77;;;12.57;;
2622;SDS011;1321;48.690;9.022;2022-09-30T07:21:30;14.40;;;13.27;;
2622;SDS011;1321;48.690;9.022;2022-09-30T07:23:59;14.10;;;13.00;;
2622;SDS011;1321;48.690;9.022;2022-09-30T07:26:27;14.23;;;13.03;;
2622;SDS011;1321;48.690;9.022;2022-09-30T07:28:57;14.43;;;13.20;;
2622;SDS011;1321;48.690;9.022;2022-09-30T07:31:26;13.93;;;12.97;;
2622;SDS011;1321;48.690;9.022;2022-09-30T07:34:00;15.57;;;14.30;;
2622;SDS011;1321;48.690;9.022;2022-09-30T07:36:29;16.23;;;14.63;;
2622;SDS011;1321;48.690;9.022;2022-09-30T07:39:00;16.10;;;14.60;;
2622;SDS011;1321;48.690;9.022;2022-09-30T07:41:33;15.80;;;14.27;;
2622;SDS011;1321;48.690;9.022;2022-09-30T07:44:05;16.17;;;14.43;;
2622;SDS011;1321;48.690;9.022;2022-09-30T07:46:35;15.70;;;14.40;;
2622;SDS011;1321;48.690;9.022;2022-09-30T07:49:06;15.63;;;14.23;;
2622;SDS011;1321;48.690;9.022;2022-09-30T07:51:38;13.83;;;13.03;;
2622;SDS011;1321;48.690;9.022;2022-09-30T07:54:10;16.27;;;14.83;;
2622;SDS011;1321;48.690;9.022;2022-09-30T07:56:39;16.47;;;15.10;;
2622;SDS011;1321;48.690;9.022;2022-09-30T07:59:31;14.93;;;13.63;;
2622;SDS011;1321;48.690;9.022;2022-09-30T08:02:01;15.80;;;14.50;;
2622;SDS011;1321;48.690;9.022;2022-09-30T08:04:30;16.13;;;14.60;;
2622;SDS011;1321;48.690;9.022;2022-09-30T08:06:58;15.43;;;14.23;;
2622;SDS011;1321;48.690;9.022;2022-09-30T08:09:28;15.27;;;14.27;;
2622;SDS011;1321;48.690;9.022;2022-09-30T08:11:57;14.90;;;13.80;;
2622;SDS011;1321;48.690;9.022;2022-09-30T08:14:26;15.27;;;14.00;;
2622;SDS011;1321;48.690;9.022;2022-09-30T08:16:55;14.60;;;13.50;;
2622;SDS011;1321;48.690;9.022;2022-09-30T08:19:26;15.23;;;14.03;;
2622;SDS011;1321;48.690;9.022;2022-09-30T08:21:56;15.10;;;14.00;;
2622;SDS011;1321;48.690;9.022;2022-09-30T08:24:25;15.70;;;14.47;;
2622;SDS011;1321;48.690;9.022;2022-09-30T08:26:53;15.13;;;14.13;;
2622;SDS011;1321;48.690;9.022;2022-09-30T08:29:22;16.00;;;14.63;;
2622;SDS011;1321;48.690;9.022;2022-09-30T08:32:12;15.87;;;14.40;;
2622;SDS011;1321;48.690;9.022;2022-09-30T08:34:41;14.30;;;13.10;;
2622;SDS011;1321;48.690;9.022;2022-09-30T08:37:09;14.17;;;13.27;;
2622;SDS011;1321;48.690;9.022;2022-09-30T08:39:37;12.77;;;11.87;;
2622;SDS011;1321;48.690;9.022;2022-09-30T08:42:13;11.97;;;11.07;;
2622;SDS011;1321;48.690;9.022;2022-09-30T08:45:04;12.27;;;11.43;;
2622;SDS011;1321;48.690;9.022;2022-09-30T08:47:42;13.43;;;12.60;;
2622;SDS011;1321;48.690;9.022;2022-09-30T08:50:17;13.10;;;12.20;;
2622;SDS011;1321;48.690;9.022;2022-09-30T08:52:51;14.13;;;13.07;;
2622;SDS011;1321;48.690;9.022;2022-09-30T08:55:25;13.30;;;12.30;;
2622;SDS011;1321;48.690;9.022;2022-09-30T08:57:57;12.80;;;11.93;;
2622;SDS011;1321;48.690;9.022;2022-09-30T09:00:28;12.43;;;11.53;;
2622;SDS011;1321;48.690;9.022;2022-09-30T09:02:58;11.77;;;10.87;;
2622;SDS011;1321;48.690;9.022;2022-09-30T09:05:32;11.37;;;10.47;;
2622;SDS011;1321;48.690;9.022;2022-09-30T09:08:19;10.90;;;10.10;;
2622;SDS011;1321;48.690;9.022;2022-09-30T09:10:54;11.80;;;11.00;;
2622;SDS011;1321;48.690;9.022;2022-09-30T09:13:37;10.17;;;9.57;;
2622;SDS011;1321;48.690;9.022;2022-09-30T09:16:13;11.90;;;10.13;;
2622;SDS011;1321;48.690;9.022;2022-09-30T09:18:55;10.17;;;9.33;;
2622;SDS011;1321;48.690;9.022;2022-09-30T09:21:35;9.90;;;9.10;;
2622;SDS011;1321;48.690;9.022;2022-09-30T09:24:14;9.23;;;8.63;;
2622;SDS011;1321;48.690;9.022;2022-09-30T09:26:44;8.73;;;8.10;;
2622;SDS011;1321;48.690;9.022;2022-09-30T09:29:19;7.10;;;6.73;;
2622;SDS011;1321;48.690;9.022;2022-09-30T09:31:54;7.10;;;6.40;;
2622;SDS011;1321;48.690;9.022;2022-09-30T09:34:26;7.50;;;6.97;;
2622;SDS011;1321;48.690;9.022;2022-09-30T09:37:00;6.93;;;6.43;;
2622;SDS011;1321;48.690;9.022;2022-09-30T09:42:37;6.57;;;6.07;;
2622;SDS011;1321;48.690;9.022;2022-09-30T09:45:15;5.27;;;4.80;;
2622;SDS011;1321;48.690;9.022;2022-09-30T09:47:52;5.20;;;4.90;;
2622;SDS011;1321;48.690;9.022;2022-09-30T09:50:25;5.47;;;4.97;;
2622;SDS011;1321;48.690;9.022;2022-09-30T09:53:04;5.80;;;5.50;;
2622;SDS011;1321;48.690;9.022;2022-09-30T09:55:53;4.80;;;4.53;;
2622;SDS011;1321;48.690;9.022;2022-09-30T09:58:25;4.83;;;4.43;;
2622;SDS011;1321;48.690;9.022;2022-09-30T10:00:57;3.80;;;3.60;;
2622;SDS011;1321;48.690;9.022;2022-09-30T10:04:08;5.17;;;4.70;;
2622;SDS011;1321;48.690;9.022;2022-09-30T10:06:43;4.80;;;4.50;;
2622;SDS011;1321;48.690;9.022;2022-09-30T10:09:23;6.07;;;5.67;;
2622;SDS011;1321;48.690;9.022;2022-09-30T10:15:00;4.37;;;4.07;;
2622;SDS011;1321;48.690;9.022;2022-09-30T10:17:31;3.77;;;3.40;;
2622;SDS011;1321;48.690;9.022;2022-09-30T10:20:03;6.17;;;4.10;;
2622;SDS011;1321;48.690;9.022;2022-09-30T10:22:35;4.43;;;4.20;;
2622;SDS011;1321;48.690;9.022;2022-09-30T10:25:15;4.57;;;4.27;;
2622;SDS011;1321;48.690;9.022;2022-09-30T10:27:47;4.60;;;4.20;;
2622;SDS011;1321;48.690;9.022;2022-09-30T10:33:17;3.27;;;3.00;;
2622;SDS011;1321;48.690;9.022;2022-09-30T10:35:52;3.50;;;2.77;;
2622;SDS011;1321;48.690;9.022;2022-09-30T10:38:29;2.80;;;2.60;;
2622;SDS011;1321;48.690;9.022;2022-09-30T10:41:01;2.37;;;2.27;;
2622;SDS011;1321;48.690;9.022;2022-09-30T10:43:33;2.27;;;2.07;;
2622;SDS011;1321;48.690;9.022;2022-09-30T10:46:05;2.90;;;2.70;;
2622;SDS011;1321;48.690;9.022;2022-09-30T10:48:53;2.60;;;2.40;;
2622;SDS011;1321;48.690;9.022;2022-09-30T10:51:23;2.23;;;2.13;;
2622;SDS011;1321;48.690;9.022;2022-09-30T10:53:56;2.70;;;2.50;;
2622;SDS011;1321;48.690;9.022;2022-09-30T10:56:36;3.70;;;2.90;;
2622;SDS011;1321;48.690;9.022;2022-09-30T10:59:11;2.10;;;2.00;;
2622;SDS011;1321;48.690;9.022;2022-09-30T11:01:47;2.97;;;2.63;;
2622;SDS011;1321;48.690;9.022;2022-09-30T11:04:24;2.10;;;1.90;;
2622;SDS011;1321;48.690;9.022;2022-09-30T11:06:59;4.30;;;2.53;;
2622;SDS011;1321;48.690;9.022;2022-09-30T11:09:39;4.20;;;2.40;;
2622;SDS011;1321;48.690;9.022;2022-09-30T11:12:15;2.20;;;2.00;;
2622;SDS011;1321;48.690;9.022;2022-09-30T11:14:50;7.43;;;5.40;;
2622;SDS011;1321;48.690;9.022;2022-09-30T11:17:29;3.10;;;2.90;;
2622;SDS011;1321;48.690;9.022;2022-09-30T11:20:06;2.63;;;2.43;;
2622;SDS011;1321;48.690;9.022;2022-09-30T11:22:47;3.27;;;2.97;;
2622;SDS011;1321;48.690;9.022;2022-09-30T11:25:29;3.63;;;3.33;;
2622;SDS011;1321;48.690;9.022;2022-09-30T11:31:01;3.50;;;2.80;;
2622;SDS011;1321;48.690;9.022;2022-09-30T11:33:42;3.10;;;2.70;;
2622;SDS011;1321;48.690;9.022;2022-09-30T11:36:22;3.13;;;2.83;;
2622;SDS011;1321;48.690;9.022;2022-09-30T11:39:02;9.73;;;7.67;;
2622;SDS011;1321;48.690;9.022;2022-09-30T11:41:50;6.90;;;6.10;;
2622;SDS011;1321;48.690;9.022;2022-09-30T11:44:26;4.30;;;3.83;;
2622;SDS011;1321;48.690;9.022;2022-09-30T11:47:01;8.13;;;4.53;;
2622;SDS011;1321;48.690;9.022;2022-09-30T11:52:44;6.03;;;4.07;;
2622;SDS011;1321;48.690;9.022;2022-09-30T11:55:29;3.53;;;3.23;;
2622;SDS011;1321;48.690;9.022;2022-09-30T11:58:07;2.60;;;2.50;;
2622;SDS011;1321;48.690;9.022;2022-09-30T12:00:57;3.03;;;2.73;;
2622;SDS011;1321;48.690;9.022;2022-09-30T12:03:36;2.77;;;2.50;;
2622;SDS011;1321;48.690;9.022;2022-09-30T12:06:09;2.70;;;2.50;;
2622;SDS011;1321;48.690;9.022;2022-09-30T12:08:44;3.33;;;3.03;;
2622;SDS011;1321;48.690;9.022;2022-09-30T12:11:17;2.93;;;2.73;;
2622;SDS011;1321;48.690;9.022;2022-09-30T12:13:51;3.53;;;2.53;;
2622;SDS011;1321;48.690;9.022;2022-09-30T12:16:26;3.80;;;3.50;;
2622;SDS011;1321;48.690;9.022;2022-09-30T12:19:01;3.40;;;3.10;;
2622;SDS011;1321;48.690;9.022;2022-09-30T12:21:43;3.45;;;3.22;;
2622;SDS011;1321;48.690;9.022;2022-09-30T12:24:18;7.40;;;5.70;;
2622;SDS011;1321;48.690;9.022;2022-09-30T12:26:52;3.33;;;3.13;;
2622;SDS011;1321;48.690;9.022;2022-09-30T12:29:23;2.90;;;2.70;;
2622;SDS011;1321;48.690;9.022;2022-09-30T12:35:22;2.83;;;2.63;;
2622;SDS011;1321;48.690;9.022;2022-09-30T12:38:17;2.60;;;2.40;;
2622;SDS011;1321;48.690;9.022;2022-09-30T12:41:02;2.53;;;2.43;;
2622;SDS011;1321;48.690;9.022;2022-09-30T12:46:46;3.17;;;2.87;;
2622;SDS011;1321;48.690;9.022;2022-09-30T12:49:29;3.20;;;2.90;;
2622;SDS011;1321;48.690;9.022;2022-09-30T12:52:02;2.83;;;2.63;;
2622;SDS011;1321;48.690;9.022;2022-09-30T12:54:33;2.97;;;2.77;;
2622;SDS011;1321;48.690;9.022;2022-09-30T12:57:06;3.90;;;2.90;;
2622;SDS011;1321;48.690;9.022;2022-09-30T12:59:36;5.13;;;2.77;;
2622;SDS011;1321;48.690;9.022;2022-09-30T13:02:24;2.47;;;2.20;;
2622;SDS011;1321;48.690;9.022;2022-09-30T13:08:08;3.00;;;2.00;;
2622;SDS011;1321;48.690;9.022;2022-09-30T13:10:55;2.37;;;2.17;;
2622;SDS011;1321;48.690;9.022;2022-09-30T13:13:27;2.00;;;1.90;;
2622;SDS011;1321;48.690;9.022;2022-09-30T13:15:58;3.37;;;3.13;;
2622;SDS011;1321;48.690;9.022;2022-09-30T13:21:27;2.10;;;1.90;;
2622;SDS011;1321;48.690;9.022;2022-09-30T13:23:58;4.07;;;2.10;;
2622;SDS011;1321;48.690;9.022;2022-09-30T13:29:33;3.00;;;2.20;;
2622;SDS011;1321;48.690;9.022;2022-09-30T13:32:05;3.67;;;2.47;;
2622;SDS011;1321;48.690;9.022;2022-09-30T13:34:53;1.97;;;1.87;;
2622;SDS011;1321;48.690;9.022;2022-09-30T13:37:30;31.20;;;22.07;;
2622;SDS011;1321;48.690;9.022;2022-09-30T13:40:12;82.13;;;45.10;;
2622;SDS011;1321;48.690;9.022;2022-09-30T13:42:46;19.00;;;12.40;;
2622;SDS011;1321;48.690;9.022;2022-09-30T13:45:20;11.87;;;7.00;;
2622;SDS011;1321;48.690;9.022;2022-09-30T13:47:58;4.37;;;4.00;;
2622;SDS011;1321;48.690;9.022;2022-09-30T13:50:38;3.20;;;2.90;;
2622;SDS011;1321;48.690;9.022;2022-09-30T13:53:13;3.90;;;3.50;;
2622;SDS011;1321;48.690;9.022;2022-09-30T13:55:47;4.67;;;3.00;;
2622;SDS011;1321;48.690;9.022;2022-09-30T13:58:29;3.70;;;2.73;;
2622;SDS011;1321;48.690;9.022;2022-09-30T14:01:12;2.73;;;2.53;;
2622;SDS011;1321;48.690;9.022;2022-09-30T14:04:01;3.40;;;2.30;;
2622;SDS011;1321;48.690;9.022;2022-09-30T14:06:45;1.87;;;1.60;;
2622;SDS011;1321;48.690;9.022;2022-09-30T14:09:30;2.20;;;2.10;;
2622;SDS011;1321;48.690;9.022;2022-09-30T14:15:06;2.50;;;2.10;;
2622;SDS011;1321;48.690;9.022;2022-09-30T14:20:56;1.70;;;1.60;;
2622;SDS011;1321;48.690;9.022;2022-09-30T14:23:33;4.10;;;1.70;;
2622;SDS011;1321;48.690;9.022;2022-09-30T14:26:07;1.90;;;1.80;;
2622;SDS011;1321;48.690;9.022;2022-09-30T14:28:49;3.57;;;1.80;;
2622;SDS011;1321;48.690;9.022;2022-09-30T14:31:22;1.77;;;1.67;;
2622;SDS011;1321;48.690;9.022;2022-09-30T14:33:51;1.90;;;1.70;;
2622;SDS011;1321;48.690;9.022;2022-09-30T14:36:20;1.80;;;1.70;;
2622;SDS011;1321;48.690;9.022;2022-09-30T14:38:51;1.67;;;1.57;;
2622;SDS011;1321;48.690;9.022;2022-09-30T14:41:23;2.50;;;1.57;;
2622;SDS011;1321;48.690;9.022;2022-09-30T14:43:55;1.67;;;1.57;;
2622;SDS011;1321;48.690;9.022;2022-09-30T14:46:28;3.10;;;1.47;;
2622;SDS011;1321;48.690;9.022;2022-09-30T14:49:01;2.70;;;1.40;;
2622;SDS011;1321;48.690;9.022;2022-09-30T14:51:35;2.50;;;2.20;;
2622;SDS011;1321;48.690;9.022;2022-09-30T14:54:16;2.33;;;1.80;;
2622;SDS011;1321;48.690;9.022;2022-09-30T14:56:46;1.53;;;1.40;;
2622;SDS011;1321;48.690;9.022;2022-09-30T14:59:15;1.73;;;1.50;;
2622;SDS011;1321;48.690;9.022;2022-09-30T15:01:45;2.50;;;1.33;;
2622;SDS011;1321;48.690;9.022;2022-09-30T15:04:15;1.70;;;1.40;;
2622;SDS011;1321;48.690;9.022;2022-09-30T15:06:46;1.77;;;1.67;;
2622;SDS011;1321;48.690;9.022;2022-09-30T15:09:19;1.80;;;1.70;;
2622;SDS011;1321;48.690;9.022;2022-09-30T15:11:53;1.50;;;1.40;;
2622;SDS011;1321;48.690;9.022;2022-09-30T15:14:23;1.90;;;1.63;;
2622;SDS011;1321;48.690;9.022;2022-09-30T15:16:52;2.60;;;1.80;;
2622;SDS011;1321;48.690;9.022;2022-09-30T15:19:22;2.80;;;1.60;;
2622;SDS011;1321;48.690;9.022;2022-09-30T15:21:53;1.70;;;1.60;;
2622;SDS011;1321;48.690;9.022;2022-09-30T15:24:24;2.30;;;1.67;;
2622;SDS011;1321;48.690;9.022;2022-09-30T15:26:56;1.70;;;1.60;;
2622;SDS011;1321;48.690;9.022;2022-09-30T15:29:26;2.70;;;1.90;;
2622;SDS011;1321;48.690;9.022;2022-09-30T15:31:55;1.50;;;1.40;;
2622;SDS011;1321;48.690;9.022;2022-09-30T15:34:27;1.47;;;1.37;;
2622;SDS011;1321;48.690;9.022;2022-09-30T15:36:56;1.60;;;1.50;;
2622;SDS011;1321;48.690;9.022;2022-09-30T15:39:33;1.70;;;1.40;;
2622;SDS011;1321;48.690;9.022;2022-09-30T15:42:28;3.37;;;2.00;;
2622;SDS011;1321;48.690;9.022;2022-09-30T15:45:00;2.00;;;1.90;;
2622;SDS011;1321;48.690;9.022;2022-09-30T15:47:31;1.80;;;1.70;;
2622;SDS011;1321;48.690;9.022;2022-09-30T15:49:59;1.50;;;1.30;;
2622;SDS011;1321;48.690;9.022;2022-09-30T15:52:28;1.57;;;1.40;;
2622;SDS011;1321;48.690;9.022;2022-09-30T16:01:08;4.50;;;2.23;;
2622;SDS011;1321;48.690;9.022;2022-09-30T16:03:48;1.70;;;1.60;;
2622;SDS011;1321;48.690;9.022;2022-09-30T16:06:21;1.50;;;1.40;;
2622;SDS011;1321;48.690;9.022;2022-09-30T16:08:52;1.20;;;1.20;;
2622;SDS011;1321;48.690;9.022;2022-09-30T16:11:29;1.50;;;1.40;;
2622;SDS011;1321;48.690;9.022;2022-09-30T16:14:00;1.23;;;1.20;;
2622;SDS011;1321;48.690;9.022;2022-09-30T16:16:31;1.20;;;1.20;;
2622;SDS011;1321;48.690;9.022;2022-09-30T16:19:02;1.50;;;1.40;;
2622;SDS011;1321;48.690;9.022;2022-09-30T16:21:39;1.63;;;1.50;;
2622;SDS011;1321;48.690;9.022;2022-09-30T16:27:24;5.80;;;1.90;;
2622;SDS011;1321;48.690;9.022;2022-09-30T16:29:56;1.77;;;1.67;;
2622;SDS011;1321;48.690;9.022;2022-09-30T16:32:25;2.20;;;1.77;;
2622;SDS011;1321;48.690;9.022;2022-09-30T16:34:55;2.20;;;2.00;;
2622;SDS011;1321;48.690;9.022;2022-09-30T16:37:23;2.63;;;2.40;;
2622;SDS011;1321;48.690;9.022;2022-09-30T16:39:53;2.30;;;2.20;;
2622;SDS011;1321;48.690;9.022;2022-09-30T16:42:24;2.40;;;2.00;;
2622;SDS011;1321;48.690;9.022;2022-09-30T16:44:53;1.90;;;1.80;;